Elko, NV (89801)

11:02 AM PST on December 27, 2014 (GMT -0800)
MesoWest ELKO SUMMIT NV US NV DOT | Change Station
CLOSE
Current Station
Personal Weather Station
Location: Elko, NV
Elevation: 5787 ft
Nearby Weather Stations

Elev 5787 ft 40.80 °N, 115.72 °W | Updated 47 minutes ago

Clear
Clear
20 °F
Feels Like 11 °F
N
7
Wind Variable Wind from South
Gusts 11.0 mph

Today
High -- | Low -- °F
--% Chance of Precip.
Yesterday
High -- | Low -- °F
Precip. -- in
7:06 AM 4:21 PM
Waxing Crescent, 39% visible
Pressure 30.44 in
Visibility 10.0 miles
Clouds Clear
Windchill 11 °F
Dew Point 6 °F
Humidity 55%
Rainfall -999.00 in
Snow Depth Not available.
UV 2 out of 12
Pollen .10 out of 12
Air Quality Not available.
Flu Activity Not available.
METAR KEKO 271856Z AUTO 26004KT 10SM CLR M04/M11 A3031 RMK AO2 SLP308 T10441106

More Conditions Fewer Conditions

Pressure 30.44 in
Visibility 10.0 miles
Clouds Clear
Windchill 11 °F
Dew Point 6 °F
Humidity 55%
Rainfall -999.00 in
Snow Depth Not available.
UV 2 out of 12
Pollen .10 out of 12
Air Quality Not available.
Flu Activity Not available.
METAR KEKO 271856Z AUTO 26004KT 10SM CLR M04/M11 A3031 RMK AO2 SLP308 T10441106

More Conditions Fewer Conditions

10-Day Weather Forecast

Almanac

Astronomy

Dec. 27, 2014 Rise Set
Actual Time
Civil Twilight
Nautical Twilight
Astronomical Twilight
Moon
Length of Visible Light
Length of Day
Tomorrow will be .
, % of the Moon is Illuminated

Today's Extremes

State Highs State Lows

Community

WunderPhotos

Upload Photos

1,780,996 photos uploaded!

WunderBlogs® & News

Nearby

Air Quality

  Air Quality AQ Index Pollutant
Not available.

Snow Depth

Station Depth Elevation

Earthquake Activity

City Distance Mag. Time & Date
Minimum magnitude displayed is 2.5.

Coastal Water Temperatures

Place Temperature

Nearby Weather Stations